sensor_id;sensor_type;location;lat;lon;timestamp;pressure;altitude;pressure_sealevel;temperature;humidity
36010;BME280;22076;52.182;5.404;2024-02-26T00:00:09;100392.41;;;7.18;100.00
36010;BME280;22076;52.182;5.404;2024-02-26T00:02:37;100386.22;;;7.20;100.00
36010;BME280;22076;52.182;5.404;2024-02-26T00:05:06;100387.38;;;7.15;100.00
36010;BME280;22076;52.182;5.404;2024-02-26T00:07:33;100386.47;;;7.16;100.00
36010;BME280;22076;52.182;5.404;2024-02-26T00:09:59;100387.22;;;7.18;100.00
36010;BME280;22076;52.182;5.404;2024-02-26T00:12:26;100390.59;;;7.20;100.00
36010;BME280;22076;52.182;5.404;2024-02-26T00:14:52;100379.19;;;7.05;100.00
36010;BME280;22076;52.182;5.404;2024-02-26T00:17:19;100382.47;;;7.08;100.00
36010;BME280;22076;52.182;5.404;2024-02-26T00:19:47;100396.88;;;7.16;100.00
36010;BME280;22076;52.182;5.404;2024-02-26T00:22:13;100401.19;;;7.15;100.00
36010;BME280;22076;52.182;5.404;2024-02-26T00:24:40;100397.44;;;7.03;100.00
36010;BME280;22076;52.182;5.404;2024-02-26T00:27:06;100394.72;;;7.06;100.00
36010;BME280;22076;52.182;5.404;2024-02-26T00:29:33;100403.13;;;7.11;100.00
36010;BME280;22076;52.182;5.404;2024-02-26T00:31:59;100405.56;;;7.15;100.00
36010;BME280;22076;52.182;5.404;2024-02-26T00:34:26;100408.16;;;7.15;100.00
36010;BME280;22076;52.182;5.404;2024-02-26T00:36:54;100418.56;;;7.15;100.00
36010;BME280;22076;52.182;5.404;2024-02-26T00:39:20;100421.22;;;7.13;100.00
36010;BME280;22076;52.182;5.404;2024-02-26T00:41:47;100405.13;;;7.06;100.00
36010;BME280;22076;52.182;5.404;2024-02-26T00:44:13;100409.38;;;7.07;100.00
36010;BME280;22076;52.182;5.404;2024-02-26T00:46:40;100406.31;;;6.99;100.00
36010;BME280;22076;52.182;5.404;2024-02-26T00:49:06;100420.16;;;7.00;100.00
36010;BME280;22076;52.182;5.404;2024-02-26T00:51:33;100418.84;;;6.91;100.00
36010;BME280;22076;52.182;5.404;2024-02-26T00:54:01;100422.41;;;6.88;100.00
36010;BME280;22076;52.182;5.404;2024-02-26T00:56:28;100422.63;;;6.84;100.00
36010;BME280;22076;52.182;5.404;2024-02-26T00:58:54;100422.84;;;6.79;100.00
36010;BME280;22076;52.182;5.404;2024-02-26T01:01:21;100425.22;;;6.84;100.00
36010;BME280;22076;52.182;5.404;2024-02-26T01:03:47;100427.25;;;6.77;100.00
36010;BME280;22076;52.182;5.404;2024-02-26T01:06:14;100429.66;;;6.82;100.00
36010;BME280;22076;52.182;5.404;2024-02-26T01:08:40;100432.94;;;6.85;100.00
36010;BME280;22076;52.182;5.404;2024-02-26T01:11:08;100439.81;;;6.86;100.00
36010;BME280;22076;52.182;5.404;2024-02-26T01:13:35;100445.72;;;6.90;100.00
36010;BME280;22076;52.182;5.404;2024-02-26T01:16:02;100442.94;;;6.93;100.00
36010;BME280;22076;52.182;5.404;2024-02-26T01:18:28;100437.38;;;6.83;100.00
36010;BME280;22076;52.182;5.404;2024-02-26T01:20:55;100436.66;;;6.80;100.00
36010;BME280;22076;52.182;5.404;2024-02-26T01:23:21;100432.47;;;6.77;100.00
36010;BME280;22076;52.182;5.404;2024-02-26T01:25:48;100435.97;;;6.76;100.00
36010;BME280;22076;52.182;5.404;2024-02-26T01:28:16;100430.50;;;6.82;100.00
36010;BME280;22076;52.182;5.404;2024-02-26T01:30:42;100431.63;;;6.76;100.00
36010;BME280;22076;52.182;5.404;2024-02-26T01:33:08;100427.63;;;6.69;100.00
36010;BME280;22076;52.182;5.404;2024-02-26T01:35:35;100430.13;;;6.71;100.00
36010;BME280;22076;52.182;5.404;2024-02-26T01:38:01;100423.06;;;6.74;100.00
36010;BME280;22076;52.182;5.404;2024-02-26T01:40:28;100428.16;;;6.76;100.00
36010;BME280;22076;52.182;5.404;2024-02-26T01:42:55;100428.41;;;6.71;100.00
36010;BME280;22076;52.182;5.404;2024-02-26T01:45:23;100421.38;;;6.73;100.00
36010;BME280;22076;52.182;5.404;2024-02-26T01:47:50;100416.41;;;6.69;100.00
36010;BME280;22076;52.182;5.404;2024-02-26T01:50:18;100430.09;;;6.72;100.00
36010;BME280;22076;52.182;5.404;2024-02-26T01:52:45;100424.94;;;6.71;100.00
36010;BME280;22076;52.182;5.404;2024-02-26T01:55:13;100433.78;;;6.67;100.00
36010;BME280;22076;52.182;5.404;2024-02-26T01:57:40;100442.38;;;6.69;100.00
36010;BME280;22076;52.182;5.404;2024-02-26T02:00:08;100450.16;;;6.69;100.00
36010;BME280;22076;52.182;5.404;2024-02-26T02:02:37;100450.22;;;6.67;100.00
36010;BME280;22076;52.182;5.404;2024-02-26T02:05:08;100456.19;;;6.69;100.00
36010;BME280;22076;52.182;5.404;2024-02-26T02:07:35;100443.47;;;6.63;100.00
36010;BME280;22076;52.182;5.404;2024-02-26T02:10:02;100449.81;;;6.57;100.00
36010;BME280;22076;52.182;5.404;2024-02-26T02:12:30;100454.63;;;6.65;100.00
36010;BME280;22076;52.182;5.404;2024-02-26T02:14:58;100442.72;;;6.61;100.00
36010;BME280;22076;52.182;5.404;2024-02-26T02:17:24;100443.06;;;6.53;100.00
36010;BME280;22076;52.182;5.404;2024-02-26T02:19:53;100454.84;;;6.60;100.00
36010;BME280;22076;52.182;5.404;2024-02-26T02:22:21;100450.44;;;6.63;100.00
36010;BME280;22076;52.182;5.404;2024-02-26T02:24:48;100451.41;;;6.60;100.00
36010;BME280;22076;52.182;5.404;2024-02-26T02:27:15;100459.19;;;6.60;100.00
36010;BME280;22076;52.182;5.404;2024-02-26T02:29:42;100466.72;;;6.66;100.00
36010;BME280;22076;52.182;5.404;2024-02-26T02:32:08;100454.91;;;6.59;100.00
36010;BME280;22076;52.182;5.404;2024-02-26T02:34:35;100450.63;;;6.58;100.00
36010;BME280;22076;52.182;5.404;2024-02-26T02:37:02;100458.28;;;6.61;100.00
36010;BME280;22076;52.182;5.404;2024-02-26T02:39:30;100458.41;;;6.58;100.00
36010;BME280;22076;52.182;5.404;2024-02-26T02:41:56;100462.00;;;6.55;100.00
36010;BME280;22076;52.182;5.404;2024-02-26T02:44:23;100452.47;;;6.56;100.00
36010;BME280;22076;52.182;5.404;2024-02-26T02:46:49;100470.41;;;6.60;100.00
36010;BME280;22076;52.182;5.404;2024-02-26T02:49:18;100465.66;;;6.51;100.00
36010;BME280;22076;52.182;5.404;2024-02-26T02:51:45;100481.09;;;6.54;100.00
36010;BME280;22076;52.182;5.404;2024-02-26T02:54:11;100470.13;;;6.48;100.00
36010;BME280;22076;52.182;5.404;2024-02-26T02:56:39;100477.53;;;6.57;100.00
36010;BME280;22076;52.182;5.404;2024-02-26T02:59:05;100480.25;;;6.54;100.00
36010;BME280;22076;52.182;5.404;2024-02-26T03:01:32;100482.91;;;6.52;100.00
36010;BME280;22076;52.182;5.404;2024-02-26T03:03:58;100485.16;;;6.60;100.00
36010;BME280;22076;52.182;5.404;2024-02-26T03:06:25;100477.56;;;6.55;100.00
36010;BME280;22076;52.182;5.404;2024-02-26T03:08:53;100480.94;;;6.57;100.00
36010;BME280;22076;52.182;5.404;2024-02-26T03:11:20;100484.53;;;6.55;100.00
36010;BME280;22076;52.182;5.404;2024-02-26T03:13:48;100494.00;;;6.56;100.00
36010;BME280;22076;52.182;5.404;2024-02-26T03:16:14;100491.66;;;6.50;100.00
36010;BME280;22076;52.182;5.404;2024-02-26T03:18:43;100491.94;;;6.43;100.00
36010;BME280;22076;52.182;5.404;2024-02-26T03:21:09;100494.53;;;6.43;100.00
36010;BME280;22076;52.182;5.404;2024-02-26T03:23:36;100498.97;;;6.41;100.00
36010;BME280;22076;52.182;5.404;2024-02-26T03:26:03;100500.84;;;6.38;100.00
36010;BME280;22076;52.182;5.404;2024-02-26T03:28:29;100488.69;;;6.38;100.00
36010;BME280;22076;52.182;5.404;2024-02-26T03:30:59;100500.91;;;6.36;100.00
36010;BME280;22076;52.182;5.404;2024-02-26T03:33:26;100506.13;;;6.36;100.00
36010;BME280;22076;52.182;5.404;2024-02-26T03:35:52;100508.63;;;6.38;100.00
36010;BME280;22076;52.182;5.404;2024-02-26T03:38:19;100520.56;;;6.42;100.00
36010;BME280;22076;52.182;5.404;2024-02-26T03:40:45;100526.38;;;6.47;100.00
36010;BME280;22076;52.182;5.404;2024-02-26T03:43:12;100512.66;;;6.45;100.00
36010;BME280;22076;52.182;5.404;2024-02-26T03:45:38;100506.69;;;6.43;100.00
36010;BME280;22076;52.182;5.404;2024-02-26T03:48:07;100519.38;;;6.49;100.00
36010;BME280;22076;52.182;5.404;2024-02-26T03:50:33;100515.28;;;6.43;100.00
36010;BME280;22076;52.182;5.404;2024-02-26T03:53:00;100515.19;;;6.47;100.00
36010;BME280;22076;52.182;5.404;2024-02-26T03:55:27;100523.78;;;6.47;100.00
36010;BME280;22076;52.182;5.404;2024-02-26T03:57:53;100511.09;;;6.41;100.00
36010;BME280;22076;52.182;5.404;2024-02-26T04:00:20;100515.94;;;6.49;100.00
36010;BME280;22076;52.182;5.404;2024-02-26T04:02:47;100511.22;;;6.38;100.00
36010;BME280;22076;52.182;5.404;2024-02-26T04:05:15;100557.00;;;7.90;100.00
36010;BME280;22076;52.182;5.404;2024-02-26T04:07:41;100542.56;;;7.84;100.00
36010;BME280;22076;52.182;5.404;2024-02-26T04:10:09;100459.50;;;7.09;100.00
36010;BME280;22076;52.182;5.404;2024-02-26T04:12:38;100437.38;;;6.64;100.00
36010;BME280;22076;52.182;5.404;2024-02-26T04:15:05;100473.47;;;7.78;100.00
36010;BME280;22076;52.182;5.404;2024-02-26T04:17:32;100439.69;;;8.12;100.00
36010;BME280;22076;52.182;5.404;2024-02-26T04:19:59;100407.47;;;8.15;100.00
36010;BME280;22076;52.182;5.404;2024-02-26T04:22:26;100376.22;;;8.31;100.00
36010;BME280;22076;52.182;5.404;2024-02-26T04:24:53;100344.91;;;8.16;100.00
36010;BME280;22076;52.182;5.404;2024-02-26T04:27:19;100324.78;;;8.20;100.00
36010;BME280;22076;52.182;5.404;2024-02-26T04:29:46;100312.28;;;8.10;100.00
36010;BME280;22076;52.182;5.404;2024-02-26T04:32:12;100321.75;;;8.27;100.00
36010;BME280;22076;52.182;5.404;2024-02-26T04:34:39;100306.81;;;8.31;100.00
36010;BME280;22076;52.182;5.404;2024-02-26T04:37:07;100299.75;;;8.33;100.00
36010;BME280;22076;52.182;5.404;2024-02-26T04:39:34;100288.34;;;8.36;100.00
36010;BME280;22076;52.182;5.404;2024-02-26T04:42:01;100252.81;;;7.21;100.00
36010;BME280;22076;52.182;5.404;2024-02-26T04:44:29;100265.91;;;6.85;100.00
36010;BME280;22076;52.182;5.404;2024-02-26T04:46:55;100290.84;;;6.52;100.00
36010;BME280;22076;52.182;5.404;2024-02-26T04:49:22;100328.19;;;6.50;100.00
36010;BME280;22076;52.182;5.404;2024-02-26T04:51:48;100385.22;;;8.09;100.00
36010;BME280;22076;52.182;5.404;2024-02-26T04:54:15;100338.81;;;6.63;100.00
36010;BME280;22076;52.182;5.404;2024-02-26T04:56:43;100364.22;;;6.56;100.00
36010;BME280;22076;52.182;5.404;2024-02-26T04:59:10;100416.75;;;8.03;100.00
36010;BME280;22076;52.182;5.404;2024-02-26T05:01:37;100385.41;;;7.88;100.00
36010;BME280;22076;52.182;5.404;2024-02-26T05:04:04;100360.50;;;7.84;100.00
36010;BME280;22076;52.182;5.404;2024-02-26T05:06:31;100362.13;;;8.19;100.00
36010;BME280;22076;52.182;5.404;2024-02-26T05:08:57;100348.44;;;7.99;100.00
36010;BME280;22076;52.182;5.404;2024-02-26T05:11:24;100350.91;;;7.85;100.00
36010;BME280;22076;52.182;5.404;2024-02-26T05:13:52;100348.25;;;8.02;100.00
36010;BME280;22076;52.182;5.404;2024-02-26T05:16:19;100339.03;;;8.13;100.00
36010;BME280;22076;52.182;5.404;2024-02-26T05:18:49;100332.31;;;8.08;100.00
36010;BME280;22076;52.182;5.404;2024-02-26T05:21:16;100324.19;;;8.15;100.00
36010;BME280;22076;52.182;5.404;2024-02-26T05:23:43;100321.66;;;7.97;100.00
36010;BME280;22076;52.182;5.404;2024-02-26T05:26:10;100327.44;;;8.02;100.00
36010;BME280;22076;52.182;5.404;2024-02-26T05:28:37;100319.81;;;7.99;100.00
36010;BME280;22076;52.182;5.404;2024-02-26T05:31:06;100326.13;;;8.11;100.00
36010;BME280;22076;52.182;5.404;2024-02-26T05:33:32;100322.59;;;8.12;100.00
36010;BME280;22076;52.182;5.404;2024-02-26T05:35:59;100317.56;;;8.25;100.00
36010;BME280;22076;52.182;5.404;2024-02-26T05:38:29;100307.25;;;8.23;100.00
36010;BME280;22076;52.182;5.404;2024-02-26T05:40:56;100320.16;;;8.41;100.00
36010;BME280;22076;52.182;5.404;2024-02-26T05:43:24;100319.22;;;8.42;100.00
36010;BME280;22076;52.182;5.404;2024-02-26T05:45:50;100307.31;;;8.38;100.00
36010;BME280;22076;52.182;5.404;2024-02-26T05:48:19;100301.09;;;7.76;100.00
36010;BME280;22076;52.182;5.404;2024-02-26T05:50:45;100317.41;;;8.44;100.00
36010;BME280;22076;52.182;5.404;2024-02-26T05:53:12;100315.28;;;8.35;100.00
36010;BME280;22076;52.182;5.404;2024-02-26T05:55:39;100314.88;;;8.10;100.00
36010;BME280;22076;52.182;5.404;2024-02-26T05:58:05;100316.41;;;8.47;100.00
36010;BME280;22076;52.182;5.404;2024-02-26T06:00:32;100315.78;;;8.25;100.00
36010;BME280;22076;52.182;5.404;2024-02-26T06:02:58;100317.97;;;8.17;100.00
36010;BME280;22076;52.182;5.404;2024-02-26T06:05:26;100325.78;;;8.33;100.00
36010;BME280;22076;52.182;5.404;2024-02-26T06:07:53;100329.06;;;8.21;100.00
36010;BME280;22076;52.182;5.404;2024-02-26T06:10:20;100332.56;;;8.36;100.00
36010;BME280;22076;52.182;5.404;2024-02-26T06:12:47;100327.19;;;8.23;100.00
36010;BME280;22076;52.182;5.404;2024-02-26T06:15:13;100331.41;;;8.41;100.00
36010;BME280;22076;52.182;5.404;2024-02-26T06:17:40;100330.50;;;8.58;100.00
36010;BME280;22076;52.182;5.404;2024-02-26T06:20:07;100339.06;;;8.60;100.00
36010;BME280;22076;52.182;5.404;2024-02-26T06:22:39;100333.69;;;8.32;100.00
36010;BME280;22076;52.182;5.404;2024-02-26T06:25:06;100343.50;;;8.26;100.00
36010;BME280;22076;52.182;5.404;2024-02-26T06:27:34;100359.06;;;8.60;100.00
36010;BME280;22076;52.182;5.404;2024-02-26T06:30:01;100334.25;;;7.20;100.00
36010;BME280;22076;52.182;5.404;2024-02-26T06:32:27;100359.16;;;8.58;100.00
36010;BME280;22076;52.182;5.404;2024-02-26T06:34:54;100359.81;;;8.46;100.00
36010;BME280;22076;52.182;5.404;2024-02-26T06:37:21;100344.34;;;8.43;100.00
36010;BME280;22076;52.182;5.404;2024-02-26T06:39:49;100359.22;;;8.57;100.00
36010;BME280;22076;52.182;5.404;2024-02-26T06:42:17;100357.06;;;8.49;100.00
36010;BME280;22076;52.182;5.404;2024-02-26T06:44:43;100369.63;;;8.57;100.00
36010;BME280;22076;52.182;5.404;2024-02-26T06:47:10;100367.91;;;8.40;100.00
36010;BME280;22076;52.182;5.404;2024-02-26T06:49:38;100374.06;;;8.39;100.00
36010;BME280;22076;52.182;5.404;2024-02-26T06:52:05;100379.09;;;8.42;100.00
36010;BME280;22076;52.182;5.404;2024-02-26T06:54:32;100389.00;;;8.19;100.00
36010;BME280;22076;52.182;5.404;2024-02-26T06:57:00;100406.72;;;8.29;100.00
36010;BME280;22076;52.182;5.404;2024-02-26T06:59:26;100415.28;;;8.31;100.00
36010;BME280;22076;52.182;5.404;2024-02-26T07:01:53;100425.50;;;8.18;100.00
36010;BME280;22076;52.182;5.404;2024-02-26T07:04:20;100433.38;;;8.16;100.00
36010;BME280;22076;52.182;5.404;2024-02-26T07:06:46;100437.75;;;8.16;100.00
36010;BME280;22076;52.182;5.404;2024-02-26T07:09:13;100450.78;;;8.16;100.00
36010;BME280;22076;52.182;5.404;2024-02-26T07:11:40;100454.47;;;7.94;100.00
36010;BME280;22076;52.182;5.404;2024-02-26T07:14:10;100468.59;;;8.06;100.00
36010;BME280;22076;52.182;5.404;2024-02-26T07:16:36;100473.50;;;7.94;100.00
36010;BME280;22076;52.182;5.404;2024-02-26T07:19:03;100483.88;;;7.96;100.00
36010;BME280;22076;52.182;5.404;2024-02-26T07:21:30;100501.13;;;7.97;100.00
36010;BME280;22076;52.182;5.404;2024-02-26T07:23:56;100510.72;;;7.97;100.00
36010;BME280;22076;52.182;5.404;2024-02-26T07:26:23;100521.59;;;7.87;100.00
36010;BME280;22076;52.182;5.404;2024-02-26T07:28:51;100528.66;;;8.19;100.00
36010;BME280;22076;52.182;5.404;2024-02-26T07:31:19;100526.75;;;8.05;100.00
36010;BME280;22076;52.182;5.404;2024-02-26T07:33:46;100532.34;;;7.97;100.00
36010;BME280;22076;52.182;5.404;2024-02-26T07:36:12;100538.13;;;8.04;100.00
36010;BME280;22076;52.182;5.404;2024-02-26T07:38:39;100531.34;;;8.00;100.00
36010;BME280;22076;52.182;5.404;2024-02-26T07:41:05;100535.19;;;8.10;100.00
36010;BME280;22076;52.182;5.404;2024-02-26T07:43:32;100545.50;;;8.29;100.00
36010;BME280;22076;52.182;5.404;2024-02-26T07:46:02;100542.13;;;8.27;100.00
36010;BME280;22076;52.182;5.404;2024-02-26T07:48:30;100538.00;;;8.23;100.00
36010;BME280;22076;52.182;5.404;2024-02-26T07:50:57;100530.97;;;8.07;100.00
36010;BME280;22076;52.182;5.404;2024-02-26T07:53:25;100542.25;;;8.08;100.00
36010;BME280;22076;52.182;5.404;2024-02-26T07:55:51;100551.34;;;8.17;100.00
36010;BME280;22076;52.182;5.404;2024-02-26T07:58:18;100555.47;;;8.21;100.00
36010;BME280;22076;52.182;5.404;2024-02-26T08:00:45;100563.75;;;8.12;100.00
36010;BME280;22076;52.182;5.404;2024-02-26T08:03:11;100563.25;;;8.03;100.00
36010;BME280;22076;52.182;5.404;2024-02-26T08:05:39;100578.28;;;8.16;100.00
36010;BME280;22076;52.182;5.404;2024-02-26T08:08:08;100587.69;;;8.18;100.00
36010;BME280;22076;52.182;5.404;2024-02-26T08:10:34;100580.66;;;8.03;100.00
36010;BME280;22076;52.182;5.404;2024-02-26T08:13:01;100588.50;;;7.84;100.00
36010;BME280;22076;52.182;5.404;2024-02-26T08:15:31;100588.66;;;7.81;100.00
36010;BME280;22076;52.182;5.404;2024-02-26T08:17:58;100581.59;;;7.28;100.00
36010;BME280;22076;52.182;5.404;2024-02-26T08:20:25;100639.63;;;7.85;100.00
36010;BME280;22076;52.182;5.404;2024-02-26T08:22:53;100632.53;;;7.69;100.00
36010;BME280;22076;52.182;5.404;2024-02-26T08:25:20;100641.59;;;7.97;100.00
36010;BME280;22076;52.182;5.404;2024-02-26T08:27:46;100637.78;;;7.87;100.00
36010;BME280;22076;52.182;5.404;2024-02-26T08:30:14;100642.66;;;7.75;100.00
36010;BME280;22076;52.182;5.404;2024-02-26T08:32:42;100640.81;;;7.77;100.00
36010;BME280;22076;52.182;5.404;2024-02-26T08:35:09;100645.34;;;7.91;100.00
36010;BME280;22076;52.182;5.404;2024-02-26T08:37:36;100640.06;;;7.93;100.00
36010;BME280;22076;52.182;5.404;2024-02-26T08:40:05;100639.41;;;8.07;100.00
36010;BME280;22076;52.182;5.404;2024-02-26T08:42:32;100633.34;;;7.89;100.00
36010;BME280;22076;52.182;5.404;2024-02-26T08:44:59;100645.94;;;8.16;100.00
36010;BME280;22076;52.182;5.404;2024-02-26T08:47:26;100641.34;;;8.38;100.00
36010;BME280;22076;52.182;5.404;2024-02-26T08:49:53;100633.38;;;8.24;100.00
36010;BME280;22076;52.182;5.404;2024-02-26T08:52:20;100641.19;;;8.41;100.00
36010;BME280;22076;52.182;5.404;2024-02-26T08:54:48;100618.59;;;8.24;100.00
36010;BME280;22076;52.182;5.404;2024-02-26T08:57:16;100630.63;;;8.09;100.00
36010;BME280;22076;52.182;5.404;2024-02-26T08:59:43;100621.75;;;8.31;100.00
36010;BME280;22076;52.182;5.404;2024-02-26T09:02:09;100619.25;;;8.47;100.00
36010;BME280;22076;52.182;5.404;2024-02-26T09:04:36;100609.84;;;7.90;100.00
36010;BME280;22076;52.182;5.404;2024-02-26T09:07:02;100630.78;;;8.24;100.00
36010;BME280;22076;52.182;5.404;2024-02-26T09:09:29;100620.38;;;8.24;100.00
36010;BME280;22076;52.182;5.404;2024-02-26T09:11:56;100631.56;;;8.26;100.00
36010;BME280;22076;52.182;5.404;2024-02-26T09:14:23;100621.19;;;8.24;100.00
36010;BME280;22076;52.182;5.404;2024-02-26T09:16:50;100621.66;;;8.15;100.00
36010;BME280;22076;52.182;5.404;2024-02-26T09:19:17;100634.53;;;8.18;100.00
36010;BME280;22076;52.182;5.404;2024-02-26T09:21:44;100609.13;;;7.52;100.00
36010;BME280;22076;52.182;5.404;2024-02-26T09:24:11;100638.03;;;8.35;100.00
36010;BME280;22076;52.182;5.404;2024-02-26T09:26:38;100635.59;;;8.32;100.00
36010;BME280;22076;52.182;5.404;2024-02-26T09:29:05;100626.41;;;8.24;100.00
36010;BME280;22076;52.182;5.404;2024-02-26T09:31:34;100634.78;;;8.31;100.00
36010;BME280;22076;52.182;5.404;2024-02-26T09:34:01;100605.38;;;7.38;100.00
36010;BME280;22076;52.182;5.404;2024-02-26T09:36:27;100642.06;;;6.53;100.00
36010;BME280;22076;52.182;5.404;2024-02-26T09:38:54;100678.34;;;6.54;100.00
36010;BME280;22076;52.182;5.404;2024-02-26T09:41:21;100726.00;;;6.31;100.00
36010;BME280;22076;52.182;5.404;2024-02-26T09:43:48;100769.44;;;6.26;100.00
36010;BME280;22076;52.182;5.404;2024-02-26T09:46:17;100842.16;;;6.24;100.00
36010;BME280;22076;52.182;5.404;2024-02-26T09:48:47;100875.88;;;6.24;100.00
36010;BME280;22076;52.182;5.404;2024-02-26T09:51:14;100918.28;;;6.23;100.00
36010;BME280;22076;52.182;5.404;2024-02-26T09:53:42;100941.81;;;6.19;100.00
36010;BME280;22076;52.182;5.404;2024-02-26T09:56:11;100968.47;;;6.22;100.00
36010;BME280;22076;52.182;5.404;2024-02-26T09:58:39;101009.03;;;6.25;100.00
36010;BME280;22076;52.182;5.404;2024-02-26T10:01:10;101023.59;;;6.29;100.00
36010;BME280;22076;52.182;5.404;2024-02-26T10:03:39;101039.38;;;6.23;100.00
36010;BME280;22076;52.182;5.404;2024-02-26T10:06:08;101062.72;;;6.23;100.00
36010;BME280;22076;52.182;5.404;2024-02-26T10:08:35;101090.22;;;6.28;100.00
36010;BME280;22076;52.182;5.404;2024-02-26T10:11:02;101101.63;;;6.23;100.00
36010;BME280;22076;52.182;5.404;2024-02-26T10:13:29;101113.63;;;6.27;100.00
36010;BME280;22076;52.182;5.404;2024-02-26T10:15:55;101129.91;;;6.32;100.00
36010;BME280;22076;52.182;5.404;2024-02-26T10:18:22;101154.16;;;6.31;100.00
36010;BME280;22076;52.182;5.404;2024-02-26T10:20:59;101140.75;;;6.43;100.00
36010;BME280;22076;52.182;5.404;2024-02-26T10:23:27;101154.97;;;6.32;100.00
36010;BME280;22076;52.182;5.404;2024-02-26T10:25:54;101131.28;;;6.42;100.00
36010;BME280;22076;52.182;5.404;2024-02-26T10:28:22;101142.88;;;6.57;100.00
36010;BME280;22076;52.182;5.404;2024-02-26T10:30:51;101154.59;;;6.44;100.00
36010;BME280;22076;52.182;5.404;2024-02-26T10:33:18;101149.72;;;6.33;100.00
36010;BME280;22076;52.182;5.404;2024-02-26T10:35:45;101179.53;;;6.48;100.00
36010;BME280;22076;52.182;5.404;2024-02-26T10:38:12;101174.66;;;6.39;100.00
36010;BME280;22076;52.182;5.404;2024-02-26T10:40:40;101190.91;;;6.44;100.00
36010;BME280;22076;52.182;5.404;2024-02-26T10:43:07;101205.53;;;6.47;100.00
36010;BME280;22076;52.182;5.404;2024-02-26T10:45:33;101215.16;;;6.43;100.00
36010;BME280;22076;52.182;5.404;2024-02-26T10:48:02;101220.16;;;6.49;100.00
36010;BME280;22076;52.182;5.404;2024-02-26T10:50:30;101275.66;;;8.17;100.00
36010;BME280;22076;52.182;5.404;2024-02-26T10:52:57;101181.59;;;6.64;100.00
36010;BME280;22076;52.182;5.404;2024-02-26T10:55:25;101182.88;;;6.52;100.00
36010;BME280;22076;52.182;5.404;2024-02-26T10:57:53;101192.56;;;6.47;100.00
36010;BME280;22076;52.182;5.404;2024-02-26T11:00:21;101199.41;;;6.49;100.00
36010;BME280;22076;52.182;5.404;2024-02-26T11:02:48;101210.81;;;6.43;100.00
36010;BME280;22076;52.182;5.404;2024-02-26T11:05:17;101216.69;;;6.49;100.00
36010;BME280;22076;52.182;5.404;2024-02-26T11:07:44;101233.88;;;6.53;100.00
36010;BME280;22076;52.182;5.404;2024-02-26T11:10:13;101256.25;;;6.57;100.00
36010;BME280;22076;52.182;5.404;2024-02-26T11:12:42;101248.09;;;6.41;100.00
36010;BME280;22076;52.182;5.404;2024-02-26T11:15:11;101272.63;;;6.59;100.00
36010;BME280;22076;52.182;5.404;2024-02-26T11:17:38;101275.22;;;6.59;100.00
36010;BME280;22076;52.182;5.404;2024-02-26T11:20:07;101280.78;;;6.73;100.00
36010;BME280;22076;52.182;5.404;2024-02-26T11:22:36;101284.44;;;6.68;100.00
36010;BME280;22076;52.182;5.404;2024-02-26T11:25:04;101284.56;;;6.65;100.00
36010;BME280;22076;52.182;5.404;2024-02-26T11:27:34;101277.19;;;6.77;100.00
36010;BME280;22076;52.182;5.404;2024-02-26T11:30:04;101276.25;;;6.80;100.00
36010;BME280;22076;52.182;5.404;2024-02-26T11:32:36;101278.00;;;6.80;100.00
36010;BME280;22076;52.182;5.404;2024-02-26T11:35:04;101272.69;;;6.83;100.00
36010;BME280;22076;52.182;5.404;2024-02-26T11:37:32;101272.00;;;6.77;100.00
36010;BME280;22076;52.182;5.404;2024-02-26T11:39:59;101268.38;;;6.83;100.00
36010;BME280;22076;52.182;5.404;2024-02-26T11:42:26;101270.06;;;6.84;100.00
36010;BME280;22076;52.182;5.404;2024-02-26T11:44:54;101280.19;;;6.92;100.00
36010;BME280;22076;52.182;5.404;2024-02-26T11:47:22;101270.97;;;6.83;100.00
36010;BME280;22076;52.182;5.404;2024-02-26T11:49:50;101280.09;;;6.95;100.00
36010;BME280;22076;52.182;5.404;2024-02-26T11:52:17;101270.75;;;6.89;100.00
36010;BME280;22076;52.182;5.404;2024-02-26T11:54:45;101269.69;;;6.95;100.00
36010;BME280;22076;52.182;5.404;2024-02-26T11:57:26;101270.66;;;6.92;100.00
36010;BME280;22076;52.182;5.404;2024-02-26T11:59:53;101264.69;;;6.89;100.00
36010;BME280;22076;52.182;5.404;2024-02-26T12:02:39;101281.44;;;6.80;100.00
36010;BME280;22076;52.182;5.404;2024-02-26T12:05:09;101268.16;;;6.89;100.00
36010;BME280;22076;52.182;5.404;2024-02-26T12:07:39;101269.06;;;6.88;100.00
36010;BME280;22076;52.182;5.404;2024-02-26T12:10:24;101288.84;;;6.92;100.00
36010;BME280;22076;52.182;5.404;2024-02-26T12:12:58;101274.94;;;6.93;100.00
36010;BME280;22076;52.182;5.404;2024-02-26T12:15:30;101287.75;;;6.98;100.00
36010;BME280;22076;52.182;5.404;2024-02-26T12:17:58;101294.09;;;6.91;100.00
36010;BME280;22076;52.182;5.404;2024-02-26T12:20:26;101279.88;;;7.01;100.00
36010;BME280;22076;52.182;5.404;2024-02-26T12:22:54;101276.47;;;6.99;100.00
36010;BME280;22076;52.182;5.404;2024-02-26T12:25:23;101281.28;;;7.10;100.00
36010;BME280;22076;52.182;5.404;2024-02-26T12:27:50;101280.66;;;7.03;100.00
36010;BME280;22076;52.182;5.404;2024-02-26T12:30:19;101284.69;;;7.12;100.00
36010;BME280;22076;52.182;5.404;2024-02-26T12:32:45;101271.91;;;7.06;100.00
36010;BME280;22076;52.182;5.404;2024-02-26T12:35:13;101271.91;;;7.06;100.00
36010;BME280;22076;52.182;5.404;2024-02-26T12:37:42;101253.63;;;7.09;100.00
36010;BME280;22076;52.182;5.404;2024-02-26T12:40:10;101250.91;;;7.12;100.00
36010;BME280;22076;52.182;5.404;2024-02-26T12:42:38;101248.13;;;7.18;100.00
36010;BME280;22076;52.182;5.404;2024-02-26T12:45:07;101224.13;;;7.10;100.00
36010;BME280;22076;52.182;5.404;2024-02-26T12:47:36;101226.44;;;7.19;100.00
36010;BME280;22076;52.182;5.404;2024-02-26T12:50:03;101228.34;;;7.14;100.00